map of MAB home
Great Circle Mapper logo
MAB - Airport
Location
City:  Marabá, Pará, Brazil
Name:Joăo Correa da Rocha Airport
ICAO:SBMA
IATA:MAB

Details
Type:Airport (Aerodrome, Airfield)
Latitude:5°22'07"S (-5.368588)
Longitude:49°08'17"W (-49.138024)
Datum:WGS 1984
Elevation:357 ft (109 m)
Variation:20.47°W (WMM2015 magnetic declination)
-0.05° annual change
Runways:1
Longest:6562 × 148 ft (2000 × 45 m), paved

Time
Time Zone:UTC-3
Local Time:

Weather
METAR:SBMA 270100Z 00000KT 9999 VCTS FEW025CB SCT100 25/25 Q1014

Related Locations
Nearby:
Farthest:ROR: 12157 mi / 19565 km
Babelthuap Island [Babelthuap/Koror Airport], PW

Find:

   beyond  
but within

Other Information
Maps:
NOTAMs:
Links:
Sources:

  
flag of Brazil
flag of Pará
  

Sectional Chart

Flight Planning
at skyvector.com

Satellite Image

Google Maps Satellite view

 

Copyright © 2004-2016 Karl L. Swartz. All rights reserved.
The Great Circle Mapper name and logo are trademarks of the Great Circle Mapper.
All other trademarks mentioned herein belong to their respective owners.
Please see credits for attibutions and further copyright information.

  Follow gcmap on Facebook Follow gcmap on Twitter Follow gcmap on Google+ GCmap on LinkedIn

hCard Microformat

Geo Microformat